createdAt,value
2023-02-25T00:01:51.254Z,1.84
2023-02-25T00:04:28.929Z,1.87
2023-02-25T00:06:56.798Z,1.80
2023-02-25T00:09:24.453Z,1.73
2023-02-25T00:11:52.184Z,1.75
2023-02-25T00:14:19.896Z,1.64
2023-02-25T00:16:50.263Z,1.59
2023-02-25T00:19:17.974Z,1.57
2023-02-25T00:21:45.627Z,1.59
2023-02-25T00:24:16.663Z,1.62
2023-02-25T00:26:45.597Z,1.59
2023-02-25T00:29:15.082Z,1.55
2023-02-25T00:31:43.181Z,1.58
2023-02-25T00:34:11.227Z,1.59
2023-02-25T00:36:39.938Z,1.56
2023-02-25T00:39:09.358Z,1.57
2023-02-25T00:41:37.280Z,1.67
2023-02-25T00:44:06.178Z,1.69
2023-02-25T00:46:34.631Z,1.72
2023-02-25T00:49:02.718Z,1.77
2023-02-25T00:51:33.076Z,1.72
2023-02-25T00:54:00.961Z,1.71
2023-02-25T00:56:28.718Z,1.77
2023-02-25T00:58:56.555Z,1.80
2023-02-25T01:01:26.200Z,1.78
2023-02-25T01:03:58.209Z,1.74
2023-02-25T01:06:28.653Z,1.74
2023-02-25T01:08:57.576Z,1.78
2023-02-25T01:11:30.198Z,1.79
2023-02-25T01:14:00.892Z,1.77
2023-02-25T01:16:30.397Z,1.77
2023-02-25T01:19:04.208Z,1.70
2023-02-25T01:21:34.293Z,1.77
2023-02-25T01:24:08.782Z,1.71
2023-02-25T01:26:41.574Z,1.73
2023-02-25T01:29:13.395Z,1.64
2023-02-25T01:31:42.589Z,1.60
2023-02-25T01:34:14.537Z,1.64
2023-02-25T01:36:42.393Z,1.53
2023-02-25T01:39:11.152Z,1.51
2023-02-25T01:41:39.607Z,1.53
2023-02-25T01:44:19.959Z,1.52
2023-02-25T01:46:50.296Z,1.50
2023-02-25T01:49:42.221Z,1.51
2023-02-25T01:52:25.920Z,1.53
2023-02-25T01:54:58.443Z,1.48
2023-02-25T01:57:26.885Z,1.58
2023-02-25T01:59:55.383Z,1.66
2023-02-25T02:02:26.902Z,1.71
2023-02-25T02:04:56.074Z,1.70
2023-02-25T02:07:25.046Z,1.66
2023-02-25T02:10:00.245Z,1.63
2023-02-25T02:12:31.987Z,1.63
2023-02-25T02:15:04.592Z,1.72
2023-02-25T02:17:53.473Z,1.71
2023-02-25T02:20:26.874Z,1.72
2023-02-25T02:23:04.524Z,1.70
2023-02-25T02:25:41.127Z,1.65
2023-02-25T02:28:33.994Z,1.69
2023-02-25T02:31:22.699Z,1.69
2023-02-25T02:34:10.432Z,1.68
2023-02-25T02:37:00.904Z,1.77
2023-02-25T02:39:51.672Z,1.73
2023-02-25T02:42:49.397Z,1.78
2023-02-25T02:45:34.795Z,1.63
2023-02-25T02:48:09.258Z,1.63
2023-02-25T02:50:42.351Z,1.63
2023-02-25T02:53:14.946Z,1.65
2023-02-25T02:55:51.066Z,1.67
2023-02-25T02:58:44.846Z,1.65
2023-02-25T03:01:21.006Z,1.57
2023-02-25T03:04:17.539Z,1.60
2023-02-25T03:06:49.723Z,1.59
2023-02-25T03:09:25.833Z,1.62
2023-02-25T03:11:53.703Z,1.51
2023-02-25T03:14:21.420Z,1.45
2023-02-25T03:17:02.534Z,1.46
2023-02-25T03:19:45.647Z,1.46
2023-02-25T03:22:23.341Z,1.40
2023-02-25T03:24:59.660Z,1.41
2023-02-25T03:27:46.217Z,1.48
2023-02-25T03:30:22.600Z,1.42
2023-02-25T03:32:57.485Z,1.49
2023-02-25T03:35:27.656Z,1.42
2023-02-25T03:38:02.247Z,1.51
2023-02-25T03:40:32.044Z,1.42
2023-02-25T03:43:09.461Z,1.33
2023-02-25T03:45:40.251Z,1.43
2023-02-25T03:48:11.035Z,1.43
2023-02-25T03:50:47.542Z,1.41
2023-02-25T03:53:15.971Z,1.44
2023-02-25T03:56:00.625Z,1.44
2023-02-25T03:58:28.550Z,1.35
2023-02-25T04:00:58.556Z,1.41
2023-02-25T04:03:26.333Z,1.34
2023-02-25T04:05:54.159Z,1.37
2023-02-25T04:08:22.766Z,1.46
2023-02-25T04:10:51.670Z,1.36
2023-02-25T04:13:21.304Z,1.31
2023-02-25T04:15:50.890Z,1.26
2023-02-25T04:18:18.685Z,1.27
2023-02-25T04:20:46.461Z,1.29
2023-02-25T04:23:16.016Z,1.28
2023-02-25T04:25:44.015Z,1.32
2023-02-25T04:28:11.893Z,1.32
2023-02-25T04:30:39.730Z,1.34
2023-02-25T04:33:07.385Z,1.37
2023-02-25T04:35:35.249Z,1.33
2023-02-25T04:38:02.937Z,1.30
2023-02-25T04:40:30.712Z,1.29
2023-02-25T04:42:58.512Z,1.25
2023-02-25T04:45:27.086Z,1.21
2023-02-25T04:48:01.078Z,1.03
2023-02-25T04:50:28.776Z,0.92
2023-02-25T04:52:56.486Z,0.90
2023-02-25T04:55:24.580Z,0.87
2023-02-25T04:57:52.225Z,0.82
2023-02-25T05:00:24.423Z,0.74
2023-02-25T05:02:52.248Z,0.72
2023-02-25T05:05:20.017Z,0.66
2023-02-25T05:07:48.272Z,0.60
2023-02-25T05:10:16.111Z,0.58
2023-02-25T05:12:43.922Z,0.62
2023-02-25T05:15:12.702Z,0.54
2023-02-25T05:17:40.517Z,0.52
2023-02-25T05:20:13.005Z,0.49
2023-02-25T05:22:42.199Z,0.49
2023-02-25T05:25:10.958Z,0.43
2023-02-25T05:27:38.884Z,0.44
2023-02-25T05:30:07.232Z,0.45
2023-02-25T05:32:35.550Z,0.48
2023-02-25T05:35:03.331Z,0.49
2023-02-25T05:37:34.318Z,0.37
2023-02-25T05:40:02.066Z,0.35
2023-02-25T05:42:38.731Z,0.30
2023-02-25T05:45:10.012Z,0.33
2023-02-25T05:47:37.608Z,0.34
2023-02-25T05:50:05.827Z,0.35
2023-02-25T05:52:33.601Z,0.38
2023-02-25T05:55:02.217Z,0.35
2023-02-25T05:57:30.276Z,0.31
2023-02-25T05:59:57.680Z,0.32
2023-02-25T06:02:25.508Z,0.30
2023-02-25T06:04:54.295Z,0.26
2023-02-25T06:07:21.738Z,0.26
2023-02-25T06:09:49.139Z,0.30
2023-02-25T06:12:16.625Z,0.30
2023-02-25T06:14:44.131Z,0.29
2023-02-25T06:17:11.965Z,0.33
2023-02-25T06:19:39.434Z,0.34
2023-02-25T06:22:06.950Z,0.39
2023-02-25T06:24:34.402Z,0.33
2023-02-25T06:27:02.004Z,0.35
2023-02-25T06:29:29.457Z,0.27
2023-02-25T06:31:56.988Z,0.31
2023-02-25T06:34:24.588Z,0.31
2023-02-25T06:36:52.127Z,0.31
2023-02-25T06:39:19.551Z,0.31
2023-02-25T06:41:47.158Z,0.31
2023-02-25T06:44:15.844Z,0.37
2023-02-25T06:46:43.563Z,0.44
2023-02-25T06:49:11.750Z,0.48
2023-02-25T06:51:39.225Z,0.49
2023-02-25T06:54:06.670Z,0.55
2023-02-25T06:56:34.311Z,0.55
2023-02-25T06:59:01.726Z,0.58
2023-02-25T07:01:29.401Z,0.53
2023-02-25T07:03:56.949Z,0.58
2023-02-25T07:06:24.680Z,0.61
2023-02-25T07:08:52.281Z,0.65
2023-02-25T07:11:19.786Z,0.73
2023-02-25T07:13:48.502Z,0.71
2023-02-25T07:16:17.226Z,0.62
2023-02-25T07:18:45.544Z,0.65
2023-02-25T07:21:13.862Z,0.62
2023-02-25T07:23:42.323Z,0.61
2023-02-25T07:26:12.374Z,0.58
2023-02-25T07:28:40.273Z,0.64
2023-02-25T07:31:19.104Z,0.73
2023-02-25T07:33:46.782Z,0.66
2023-02-25T07:36:15.410Z,0.79
2023-02-25T07:38:43.516Z,0.72
2023-02-25T07:41:13.889Z,0.71
2023-02-25T07:43:41.907Z,0.82
2023-02-25T07:46:10.290Z,0.85
2023-02-25T07:48:37.877Z,0.87
2023-02-25T07:51:19.032Z,0.93
2023-02-25T07:53:47.964Z,0.90
2023-02-25T07:56:16.743Z,0.98
2023-02-25T07:58:44.781Z,1.01
2023-02-25T08:01:27.494Z,1.00
2023-02-25T08:03:58.513Z,1.05
2023-02-25T08:06:27.960Z,1.22
2023-02-25T08:08:56.083Z,1.10
2023-02-25T08:11:25.686Z,1.05
2023-02-25T08:13:54.025Z,1.01
2023-02-25T08:16:22.142Z,1.05
2023-02-25T08:18:49.923Z,1.08
2023-02-25T08:21:18.950Z,1.25
2023-02-25T08:23:46.493Z,1.14
2023-02-25T08:26:16.206Z,1.11
2023-02-25T08:28:44.346Z,1.20
2023-02-25T08:31:12.770Z,1.03
2023-02-25T08:33:43.721Z,1.18
2023-02-25T08:36:17.285Z,1.00
2023-02-25T08:38:44.850Z,1.12
2023-02-25T08:41:12.815Z,1.15
2023-02-25T08:43:41.136Z,1.04
2023-02-25T08:46:09.347Z,0.99
2023-02-25T08:48:37.202Z,1.07
2023-02-25T08:51:09.652Z,1.11
2023-02-25T08:53:39.164Z,1.21
2023-02-25T08:56:09.990Z,1.25
2023-02-25T08:58:38.408Z,1.21
2023-02-25T09:01:14.803Z,1.24
2023-02-25T09:03:53.515Z,1.08
2023-02-25T09:06:28.044Z,1.01
2023-02-25T09:08:56.973Z,0.88
2023-02-25T09:11:26.218Z,0.88
2023-02-25T09:13:54.541Z,0.84
2023-02-25T09:16:22.229Z,0.83
2023-02-25T09:18:51.675Z,0.76
2023-02-25T09:21:19.471Z,0.73
2023-02-25T09:23:47.276Z,0.79
2023-02-25T09:26:15.285Z,0.65
2023-02-25T09:28:43.048Z,0.61
2023-02-25T09:31:10.528Z,0.64
2023-02-25T09:33:42.822Z,0.65
2023-02-25T09:36:16.359Z,0.78
2023-02-25T09:38:45.674Z,0.81
2023-02-25T09:42:01.264Z,0.84
2023-02-25T09:44:37.471Z,1.05
2023-02-25T09:47:04.979Z,1.20
2023-02-25T09:49:41.900Z,1.26
2023-02-25T09:52:18.648Z,1.43
2023-02-25T09:54:50.250Z,1.27
2023-02-25T09:57:21.696Z,1.37
2023-02-25T09:59:52.693Z,1.37
2023-02-25T10:02:30.393Z,1.40
2023-02-25T10:05:48.490Z,1.24
2023-02-25T10:08:25.705Z,1.34
2023-02-25T10:11:06.945Z,1.35
2023-02-25T10:14:16.324Z,1.32
2023-02-25T10:16:51.459Z,1.34
2023-02-25T10:20:09.458Z,1.20
2023-02-25T10:22:51.276Z,1.09
2023-02-25T10:25:32.626Z,1.34
2023-02-25T10:28:02.573Z,1.40
2023-02-25T10:30:38.359Z,1.46
2023-02-25T10:33:21.980Z,1.47
2023-02-25T10:35:55.294Z,1.35
2023-02-25T10:38:22.885Z,1.23
2023-02-25T10:40:56.715Z,1.32
2023-02-25T10:43:26.217Z,1.24
2023-02-25T10:46:18.333Z,1.39
2023-02-25T10:48:57.792Z,1.40
2023-02-25T10:51:27.722Z,1.46
2023-02-25T10:54:05.223Z,1.59
2023-02-25T10:56:43.497Z,1.37
2023-02-25T10:59:30.066Z,1.49
2023-02-25T11:02:00.443Z,1.53
2023-02-25T11:04:33.806Z,1.49
2023-02-25T11:07:01.354Z,1.37
2023-02-25T11:09:33.494Z,1.30
2023-02-25T11:12:20.147Z,1.29
2023-02-25T11:14:47.892Z,1.26
2023-02-25T11:17:23.205Z,1.09
2023-02-25T11:20:00.672Z,1.00
2023-02-25T11:22:57.476Z,1.04
2023-02-25T11:25:40.001Z,1.10
2023-02-25T11:28:37.026Z,1.05
2023-02-25T11:31:08.195Z,1.20
2023-02-25T11:33:39.305Z,1.18
2023-02-25T11:36:08.082Z,1.37
2023-02-25T11:38:38.959Z,1.19
2023-02-25T11:41:30.849Z,1.23
2023-02-25T11:43:59.411Z,1.36
2023-02-25T11:46:32.890Z,1.58
2023-02-25T11:49:00.421Z,1.43
2023-02-25T11:51:41.159Z,1.34
2023-02-25T11:54:08.994Z,1.49
2023-02-25T11:56:48.842Z,1.54
2023-02-25T11:59:40.575Z,1.37
2023-02-25T12:02:23.849Z,1.55
2023-02-25T12:04:57.739Z,1.45
2023-02-25T12:08:05.027Z,1.35
2023-02-25T12:10:52.993Z,1.49
2023-02-25T12:13:38.444Z,1.39
2023-02-25T12:16:25.551Z,1.45
2023-02-25T12:19:08.091Z,1.47
2023-02-25T12:22:13.130Z,1.59
2023-02-25T12:24:58.728Z,1.55
2023-02-25T12:27:38.331Z,1.57
2023-02-25T12:30:05.829Z,1.55
2023-02-25T12:32:53.881Z,1.56
2023-02-25T12:35:33.561Z,1.73
2023-02-25T12:38:27.062Z,1.84
2023-02-25T12:41:00.231Z,1.91
2023-02-25T12:43:47.951Z,1.80
2023-02-25T12:46:27.506Z,2.02
2023-02-25T12:49:33.930Z,1.90
2023-02-25T12:52:25.684Z,1.82
2023-02-25T12:55:31.683Z,1.76
2023-02-25T12:58:20.290Z,1.72
2023-02-25T13:01:03.214Z,1.66
2023-02-25T13:03:59.026Z,1.85
2023-02-25T13:06:45.301Z,1.76
2023-02-25T13:09:21.919Z,1.67
2023-02-25T13:12:15.178Z,1.62
2023-02-25T13:15:09.836Z,1.64
2023-02-25T13:18:19.123Z,1.50
2023-02-25T13:21:11.978Z,1.59
2023-02-25T13:24:09.137Z,1.52
2023-02-25T13:27:10.957Z,1.49
2023-02-25T13:29:38.420Z,1.34
2023-02-25T13:32:37.863Z,1.43
2023-02-25T13:35:26.984Z,1.41
2023-02-25T13:38:30.040Z,1.53
2023-02-25T13:41:38.848Z,1.43
2023-02-25T13:44:40.092Z,1.32
2023-02-25T13:47:44.772Z,1.45
2023-02-25T13:50:25.100Z,1.62
2023-02-25T13:53:46.886Z,1.56
2023-02-25T13:56:43.986Z,1.48
2023-02-25T13:59:49.028Z,1.40
2023-02-25T14:02:25.648Z,1.27
2023-02-25T14:05:14.695Z,1.29
2023-02-25T14:08:05.370Z,1.28
2023-02-25T14:10:43.723Z,1.25
2023-02-25T14:13:26.171Z,1.16
2023-02-25T14:16:31.590Z,1.26
2023-02-25T14:19:05.041Z,1.29
2023-02-25T14:22:03.123Z,1.29
2023-02-25T14:24:46.794Z,1.39
2023-02-25T14:27:47.606Z,1.47
2023-02-25T14:30:56.772Z,1.51
2023-02-25T14:33:48.372Z,1.37
2023-02-25T14:36:40.823Z,1.35
2023-02-25T14:39:32.299Z,1.25
2023-02-25T14:42:21.313Z,1.21
2023-02-25T14:44:57.385Z,1.17
2023-02-25T14:47:50.623Z,0.97
2023-02-25T14:50:33.903Z,0.98
2023-02-25T14:53:31.338Z,0.87
2023-02-25T14:56:20.708Z,0.58
2023-02-25T14:59:06.579Z,0.27
2023-02-25T15:01:52.482Z,0.16
2023-02-25T15:05:00.661Z,0.12
2023-02-25T15:07:56.939Z,0.12
2023-02-25T15:11:06.362Z,0.15
2023-02-25T15:14:15.369Z,0.15
2023-02-25T15:17:01.307Z,0.08
2023-02-25T15:19:50.628Z,0.03
2023-02-25T15:22:29.705Z,0.09
2023-02-25T15:25:21.453Z,0.11
2023-02-25T15:27:49.192Z,0.11
2023-02-25T15:30:22.363Z,0.07
2023-02-25T15:33:07.935Z,0.03
2023-02-25T15:35:35.410Z,0.02
2023-02-25T15:38:08.530Z,-0.01
2023-02-25T15:41:02.508Z,0.01
2023-02-25T15:43:42.661Z,0.04
2023-02-25T15:46:10.184Z,0.04
2023-02-25T15:48:39.569Z,0.02
2023-02-25T15:51:11.814Z,0.03
2023-02-25T15:53:42.076Z,-0.07
2023-02-25T15:56:12.327Z,0.09
2023-02-25T15:58:50.751Z,0.07
2023-02-25T16:01:21.699Z,0.12
2023-02-25T16:03:49.668Z,0.02
2023-02-25T16:06:32.382Z,0.10
2023-02-25T16:09:10.376Z,0.01
2023-02-25T16:11:43.682Z,-0.05
2023-02-25T16:14:33.826Z,-0.15
2023-02-25T16:17:09.735Z,-0.28
2023-02-25T16:19:39.589Z,-0.40
2023-02-25T16:22:15.957Z,-0.57
2023-02-25T16:24:55.820Z,-0.57
2023-02-25T16:27:29.110Z,-0.60
2023-02-25T16:30:10.969Z,-0.62
2023-02-25T16:33:04.628Z,-0.73
2023-02-25T16:35:53.427Z,-0.68
2023-02-25T16:38:39.634Z,-0.59
2023-02-25T16:41:07.393Z,-0.62
2023-02-25T16:43:39.464Z,-0.72
2023-02-25T16:46:13.723Z,-0.70
2023-02-25T16:48:54.905Z,-0.66
2023-02-25T16:51:42.522Z,-0.64
2023-02-25T16:54:18.645Z,-0.67
2023-02-25T16:56:49.190Z,-0.77
2023-02-25T16:59:21.806Z,-0.76
2023-02-25T17:01:58.470Z,-0.78
2023-02-25T17:04:38.755Z,-0.73
2023-02-25T17:07:17.099Z,-0.83
2023-02-25T17:09:53.709Z,-0.87
2023-02-25T17:12:30.387Z,-0.84
2023-02-25T17:15:01.008Z,-0.90
2023-02-25T17:17:33.323Z,-0.86
2023-02-25T17:20:05.996Z,-0.87
2023-02-25T17:22:35.369Z,-0.93
2023-02-25T17:25:04.233Z,-0.92
2023-02-25T17:27:32.500Z,-0.95
2023-02-25T17:30:00.097Z,-0.93
2023-02-25T17:32:30.281Z,-1.05
2023-02-25T17:35:03.089Z,-1.18
2023-02-25T17:37:31.979Z,-1.16
2023-02-25T17:40:01.476Z,-1.23
2023-02-25T17:42:29.039Z,-1.32
2023-02-25T17:44:57.266Z,-1.23
2023-02-25T17:47:33.928Z,-1.13
2023-02-25T17:50:32.812Z,-1.17
2023-02-25T17:53:00.572Z,-1.12
2023-02-25T17:55:39.316Z,-1.11
2023-02-25T17:58:09.013Z,-0.99
2023-02-25T18:00:36.904Z,-1.04
2023-02-25T18:03:25.460Z,-1.10
2023-02-25T18:06:02.838Z,-1.18
2023-02-25T18:08:31.706Z,-1.09
2023-02-25T18:11:13.044Z,-1.15
2023-02-25T18:13:40.635Z,-1.26
2023-02-25T18:16:25.708Z,-1.34
2023-02-25T18:18:55.726Z,-1.45
2023-02-25T18:21:23.506Z,-1.43
2023-02-25T18:23:51.588Z,-1.50
2023-02-25T18:26:24.160Z,-1.43
2023-02-25T18:28:54.946Z,-1.39
2023-02-25T18:31:22.642Z,-1.45
2023-02-25T18:33:50.634Z,-1.32
2023-02-25T18:36:23.611Z,-1.30
2023-02-25T18:38:54.262Z,-1.29
2023-02-25T18:41:21.905Z,-1.29
2023-02-25T18:43:49.446Z,-1.27
2023-02-25T18:46:17.031Z,-1.20
2023-02-25T18:48:44.566Z,-1.17
2023-02-25T18:51:15.379Z,-1.16
2023-02-25T18:53:43.014Z,-1.19
2023-02-25T18:56:16.541Z,-1.16
2023-02-25T18:58:44.737Z,-1.05
2023-02-25T19:01:24.215Z,-1.08
2023-02-25T19:03:52.036Z,-1.12
2023-02-25T19:06:19.655Z,-1.10
2023-02-25T19:08:47.171Z,-1.08
2023-02-25T19:11:22.081Z,-1.03
2023-02-25T19:13:49.870Z,-1.15
2023-02-25T19:16:19.302Z,-1.07
2023-02-25T19:18:50.094Z,-1.08
2023-02-25T19:21:20.407Z,-1.07
2023-02-25T19:23:51.713Z,-1.02
2023-02-25T19:26:20.361Z,-1.07
2023-02-25T19:28:47.885Z,-1.05
2023-02-25T19:31:16.147Z,-1.09
2023-02-25T19:33:43.729Z,-1.10
2023-02-25T19:36:12.099Z,-1.18
2023-02-25T19:38:39.739Z,-1.30
2023-02-25T19:41:07.291Z,-1.28
2023-02-25T19:43:34.978Z,-1.24
2023-02-25T19:46:02.858Z,-1.23
2023-02-25T19:48:30.289Z,-1.25
2023-02-25T19:50:57.996Z,-1.25
2023-02-25T19:53:26.326Z,-1.18
2023-02-25T19:55:57.068Z,-1.14
2023-02-25T19:58:24.999Z,-1.12
2023-02-25T20:00:52.652Z,-1.08
2023-02-25T20:03:20.164Z,-1.12
2023-02-25T20:05:47.715Z,-1.27
2023-02-25T20:08:15.286Z,-1.19
2023-02-25T20:10:43.903Z,-1.25
2023-02-25T20:13:11.474Z,-1.26
2023-02-25T20:15:39.075Z,-1.25
2023-02-25T20:18:06.569Z,-1.32
2023-02-25T20:20:34.140Z,-1.34
2023-02-25T20:23:01.689Z,-1.35
2023-02-25T20:25:29.209Z,-1.39
2023-02-25T20:27:56.632Z,-1.34
2023-02-25T20:30:24.569Z,-1.29
2023-02-25T20:32:52.126Z,-1.34
2023-02-25T20:35:22.082Z,-1.33
2023-02-25T20:38:24.356Z,-1.34
2023-02-25T20:40:51.873Z,-1.42
2023-02-25T20:43:19.564Z,-1.54
2023-02-25T20:45:47.576Z,-1.60
2023-02-25T20:48:29.782Z,-1.63
2023-02-25T20:50:58.087Z,-1.56
2023-02-25T20:53:25.773Z,-1.56
2023-02-25T20:55:56.246Z,-1.50
2023-02-25T20:58:23.801Z,-1.60
2023-02-25T21:00:51.291Z,-1.65
2023-02-25T21:03:18.823Z,-1.62
2023-02-25T21:05:46.305Z,-1.63
2023-02-25T21:08:14.859Z,-1.64
2023-02-25T21:10:43.516Z,-1.63
2023-02-25T21:13:11.144Z,-1.60
2023-02-25T21:15:38.649Z,-1.54
2023-02-25T21:18:06.178Z,-1.57
2023-02-25T21:20:33.945Z,-1.56
2023-02-25T21:23:01.422Z,-1.63
2023-02-25T21:25:30.904Z,-1.69
2023-02-25T21:27:58.659Z,-1.70
2023-02-25T21:30:26.819Z,-1.69
2023-02-25T21:32:54.297Z,-1.72
2023-02-25T21:35:25.275Z,-1.75
2023-02-25T21:37:52.745Z,-1.74
2023-02-25T21:40:20.248Z,-1.77
2023-02-25T21:42:47.814Z,-1.77
2023-02-25T21:45:15.328Z,-1.77
2023-02-25T21:47:42.807Z,-1.91
2023-02-25T21:50:10.827Z,-1.82
2023-02-25T21:52:38.363Z,-1.89
2023-02-25T21:55:06.640Z,-1.93
2023-02-25T21:57:34.168Z,-1.88
2023-02-25T22:00:01.995Z,-1.84
2023-02-25T22:02:39.480Z,-1.84
2023-02-25T22:05:07.431Z,-1.88
2023-02-25T22:07:34.926Z,-1.82
2023-02-25T22:10:02.483Z,-1.80
2023-02-25T22:12:30.045Z,-1.85
2023-02-25T22:14:57.572Z,-1.86
2023-02-25T22:17:25.171Z,-1.82
2023-02-25T22:19:52.661Z,-1.73
2023-02-25T22:22:20.231Z,-1.75
2023-02-25T22:24:48.359Z,-1.69
2023-02-25T22:27:15.845Z,-1.67
2023-02-25T22:29:43.355Z,-1.69
2023-02-25T22:32:11.492Z,-1.64
2023-02-25T22:34:39.112Z,-1.64
2023-02-25T22:37:06.785Z,-1.63
2023-02-25T22:39:34.749Z,-1.62
2023-02-25T22:42:02.225Z,-1.64
2023-02-25T22:44:29.736Z,-1.64
2023-02-25T22:46:57.367Z,-1.58
2023-02-25T22:49:24.867Z,-1.68
2023-02-25T22:51:52.356Z,-1.64
2023-02-25T22:54:20.624Z,-1.69
2023-02-25T22:56:49.859Z,-1.68
2023-02-25T22:59:17.670Z,-1.71
2023-02-25T23:01:46.071Z,-1.67
2023-02-25T23:04:13.516Z,-1.70
2023-02-25T23:06:44.357Z,-1.78
2023-02-25T23:09:15.475Z,-1.81
2023-02-25T23:11:45.010Z,-1.82
2023-02-25T23:14:14.424Z,-1.81
2023-02-25T23:16:45.984Z,-1.86
2023-02-25T23:19:18.694Z,-1.82
2023-02-25T23:21:46.531Z,-1.86
2023-02-25T23:24:18.648Z,-1.80
2023-02-25T23:26:49.192Z,-1.84
2023-02-25T23:29:16.685Z,-1.82
2023-02-25T23:31:47.175Z,-1.80
2023-02-25T23:34:19.753Z,-1.76
2023-02-25T23:36:47.619Z,-1.78
2023-02-25T23:39:15.576Z,-1.85
2023-02-25T23:41:43.944Z,-1.83
2023-02-25T23:44:13.537Z,-1.81
2023-02-25T23:46:45.365Z,-1.77
2023-02-25T23:49:14.820Z,-1.75
2023-02-25T23:51:46.678Z,-1.80
2023-02-25T23:54:17.239Z,-1.78
2023-02-25T23:56:45.218Z,-1.78
2023-02-25T23:59:13.464Z,-1.77
